Check out our new BloomSky Weather System.

Active alerts


No alerts


Thunder radar  blitzortung!


Rain radar more information rain snow radar


Visit our other weather sites:

Template documentation
and downloads

And another site



Weather Underground History page Text

Daily Summary for April 1, 2017 Units:  English    Metric   Both
« Previous Day
Next Day »
Daily Weekly Monthly Yearly Custom
  High: Low: Average:
Temperature: 79.3 °F 60.4 °F 71 °F
Dew Point: 68.4 °F 59.5 °F 64.9 °F
Humidity: 99 % 66 % 82 %
Wind Speed: 13.0 mph 0.0 mph 3.7 mph
Wind Gust: 21.0 mph - -
Wind:- - SE
Pressure: 29.91 in 29.81 in -
Precipitation: 0.00 in    
Historical Graphs
 
 
Tabular Data for April 1, 2017
Time Temperature Dew Point Pressure Wind Wind Speed Wind Gust Humidity Rainfall Rate (Hourly)
00:04 66.7 °F 63.3 °F 29.83 in ENE 2.0 mph 4.0 mph 89 % 0.00 in
00:09 66.7 °F 63.3 °F 29.83 in SE 1.0 mph 5.0 mph 89 % 0.00 in
00:14 66.7 °F 63.3 °F 29.83 in SE 1.0 mph 6.0 mph 89 % 0.00 in
00:19 66.6 °F 63.1 °F 29.83 in ESE 3.0 mph 6.0 mph 89 % 0.00 in
00:24 66.6 °F 63.1 °F 29.83 in SE 2.0 mph 6.0 mph 89 % 0.00 in
00:29 66.4 °F 63.0 °F 29.83 in ESE 2.0 mph 5.0 mph 89 % 0.00 in
00:34 66.2 °F 62.8 °F 29.83 in SE 2.0 mph 5.0 mph 89 % 0.00 in
00:39 66.2 °F 63.1 °F 29.83 in Calm   3.0 mph 90 % 0.00 in
00:44 66.0 °F 63.0 °F 29.83 in ESE 2.0 mph 3.0 mph 90 % 0.00 in
00:49 66.0 °F 63.0 °F 29.83 in Calm   3.0 mph 90 % 0.00 in
00:54 65.8 °F 62.8 °F 29.83 in SSE 1.0 mph 3.0 mph 90 % 0.00 in
00:59 65.8 °F 62.8 °F 29.83 in ESE 1.0 mph 3.0 mph 90 % 0.00 in
01:04 65.7 °F 63.0 °F 29.83 in Calm   3.0 mph 91 % 0.00 in
01:09 65.7 °F 63.0 °F 29.83 in SE 2.0 mph 4.0 mph 91 % 0.00 in
01:14 65.5 °F 62.8 °F 29.83 in East 1.0 mph 4.0 mph 91 % 0.00 in
01:19 65.5 °F 62.8 °F 29.83 in East 1.0 mph 4.0 mph 91 % 0.00 in
01:24 65.5 °F 62.8 °F 29.83 in SE 2.0 mph 3.0 mph 91 % 0.00 in
01:29 65.5 °F 62.8 °F 29.83 in Calm   3.0 mph 91 % 0.00 in
01:34 65.1 °F 62.4 °F 29.83 in Calm   3.0 mph 91 % 0.00 in
01:39 65.1 °F 62.4 °F 29.83 in Calm   2.0 mph 91 % 0.00 in
01:44 64.9 °F 62.2 °F 29.83 in Calm   2.0 mph 91 % 0.00 in
01:49 64.9 °F 62.2 °F 29.82 in ESE 1.0 mph 2.0 mph 91 % 0.00 in
01:54 64.8 °F 62.4 °F 29.82 in Calm   2.0 mph 92 % 0.00 in
01:59 64.6 °F 62.2 °F 29.82 in Calm   2.0 mph 92 % 0.00 in
02:04 64.4 °F 62.1 °F 29.82 in Calm   1.0 mph 92 % 0.00 in
02:09 64.2 °F 61.9 °F 29.82 in Calm   2.0 mph 92 % 0.00 in
02:14 64.0 °F 61.7 °F 29.82 in Calm   2.0 mph 92 % 0.00 in
02:19 63.9 °F 61.5 °F 29.82 in Calm   2.0 mph 92 % 0.00 in
02:24 63.5 °F 61.5 °F 29.83 in Calm   1.0 mph 93 % 0.00 in
02:29 63.3 °F 61.3 °F 29.83 in Calm   1.0 mph 93 % 0.00 in
02:34 63.1 °F 61.2 °F 29.82 in Calm   1.0 mph 93 % 0.00 in
02:39 63.0 °F 61.0 °F 29.82 in Calm   1.0 mph 93 % 0.00 in
02:44 63.0 °F 61.2 °F 29.81 in Calm   1.0 mph 94 % 0.00 in
02:49 63.0 °F 61.2 °F 29.82 in Calm   1.0 mph 94 % 0.00 in
02:54 62.6 °F 60.8 °F 29.82 in Calm   1.0 mph 94 % 0.00 in
02:59 62.8 °F 61.3 °F 29.81 in Calm   1.0 mph 95 % 0.00 in
03:04 62.8 °F 61.3 °F 29.81 in Calm   3.0 mph 95 % 0.00 in
03:09 63.0 °F 61.5 °F 29.81 in Calm   3.0 mph 95 % 0.00 in
03:14 63.0 °F 61.5 °F 29.81 in Calm   3.0 mph 95 % 0.00 in
03:19 63.0 °F 61.5 °F 29.81 in Calm   3.0 mph 95 % 0.00 in
03:24 63.1 °F 61.7 °F 29.81 in Calm   3.0 mph 95 % 0.00 in
03:29 63.0 °F 61.5 °F 29.81 in Calm   3.0 mph 95 % 0.00 in
03:34 63.0 °F 61.5 °F 29.81 in Calm   3.0 mph 95 % 0.00 in
03:39 63.0 °F 61.9 °F 29.81 in Calm   2.0 mph 96 % 0.00 in
03:44 63.0 °F 61.9 °F 29.81 in Calm   2.0 mph 96 % 0.00 in
03:49 63.0 °F 61.9 °F 29.82 in Calm   2.0 mph 96 % 0.00 in
03:54 63.0 °F 61.9 °F 29.82 in Calm   2.0 mph 96 % 0.00 in
03:59 62.8 °F 61.7 °F 29.82 in Calm   2.0 mph 96 % 0.00 in
04:04 62.8 °F 61.7 °F 29.83 in Calm   2.0 mph 96 % 0.00 in
04:09 62.6 °F 61.5 °F 29.83 in Calm   2.0 mph 96 % 0.00 in
04:14 62.4 °F 61.3 °F 29.83 in Calm   1.0 mph 96 % 0.00 in
04:19 62.2 °F 61.2 °F 29.83 in Calm   1.0 mph 96 % 0.00 in
04:24 62.1 °F 61.0 °F 29.83 in Calm     96 % 0.00 in
04:29 61.9 °F 60.8 °F 29.83 in Calm   1.0 mph 96 % 0.00 in
04:34 61.5 °F 60.4 °F 29.83 in Calm   1.0 mph 96 % 0.00 in
04:39 61.5 °F 60.4 °F 29.83 in Calm   1.0 mph 96 % 0.00 in
04:44 61.3 °F 60.3 °F 29.83 in Calm   1.0 mph 96 % 0.00 in
04:49 61.2 °F 60.1 °F 29.83 in Calm   1.0 mph 96 % 0.00 in
04:54 61.2 °F 60.1 °F 29.83 in Calm     96 % 0.00 in
04:59 61.2 °F 60.1 °F 29.83 in Calm     96 % 0.00 in
05:04 61.0 °F 59.9 °F 29.83 in Calm   1.0 mph 96 % 0.00 in
05:09 60.8 °F 59.9 °F 29.83 in Calm   1.0 mph 97 % 0.00 in
05:14 60.6 °F 59.7 °F 29.83 in Calm   1.0 mph 97 % 0.00 in
05:19 60.6 °F 59.7 °F 29.83 in Calm     97 % 0.00 in
05:24 60.6 °F 59.7 °F 29.84 in Calm   1.0 mph 97 % 0.00 in
05:29 60.8 °F 59.9 °F 29.84 in Calm   1.0 mph 97 % 0.00 in
05:34 60.6 °F 59.7 °F 29.84 in Calm   1.0 mph 97 % 0.00 in
05:39 60.4 °F 59.5 °F 29.84 in Calm     97 % 0.00 in
05:44 60.4 °F 59.5 °F 29.84 in Calm     97 % 0.00 in
05:49 60.4 °F 59.5 °F 29.84 in Calm     97 % 0.00 in
05:54 60.4 °F 59.5 °F 29.84 in Calm     97 % 0.00 in
05:59 60.6 °F 60.1 °F 29.84 in Calm   1.0 mph 98 % 0.00 in
06:04 61.0 °F 60.4 °F 29.83 in Calm   2.0 mph 98 % 0.00 in
06:07 61.0 °F 60.4 °F 29.83 in NNE 1.0 mph 2.0 mph 98 % 0.00 in
06:12 61.2 °F 60.6 °F 29.83 in Calm   2.0 mph 98 % 0.00 in
06:17 61.5 °F 61.0 °F 29.83 in Calm   4.0 mph 98 % 0.00 in
06:22 61.5 °F 61.0 °F 29.84 in Calm   4.0 mph 98 % 0.00 in
06:27 61.5 °F 61.0 °F 29.84 in Calm   4.0 mph 98 % 0.00 in
06:32 61.5 °F 61.0 °F 29.84 in Calm   3.0 mph 98 % 0.00 in
06:37 61.5 °F 61.0 °F 29.85 in Calm   3.0 mph 98 % 0.00 in
06:42 61.7 °F 61.2 °F 29.84 in Calm   3.0 mph 98 % 0.00 in
06:47 61.7 °F 61.2 °F 29.84 in Calm   3.0 mph 98 % 0.00 in
06:52 61.7 °F 61.2 °F 29.84 in Calm   2.0 mph 98 % 0.00 in
06:57 61.7 °F 61.2 °F 29.84 in Calm   2.0 mph 98 % 0.00 in
07:02 61.7 °F 61.2 °F 29.84 in Calm   2.0 mph 98 % 0.00 in
07:07 61.5 °F 61.0 °F 29.84 in Calm   2.0 mph 98 % 0.00 in
07:12 61.7 °F 61.2 °F 29.85 in Calm   2.0 mph 98 % 0.00 in
07:17 61.7 °F 61.2 °F 29.85 in Calm   2.0 mph 98 % 0.00 in
07:22 61.9 °F 61.3 °F 29.85 in Calm   3.0 mph 98 % 0.00 in
07:27 61.9 °F 61.3 °F 29.86 in Calm   3.0 mph 98 % 0.00 in
07:32 62.1 °F 61.5 °F 29.86 in Calm   3.0 mph 98 % 0.00 in
07:37 62.2 °F 61.7 °F 29.86 in Calm   2.0 mph 98 % 0.00 in
07:42 62.4 °F 61.9 °F 29.86 in SSW 1.0 mph 2.0 mph 98 % 0.00 in
07:47 62.6 °F 62.1 °F 29.86 in Calm   2.0 mph 98 % 0.00 in
07:52 63.0 °F 62.4 °F 29.87 in SE 1.0 mph 2.0 mph 98 % 0.00 in
07:57 63.5 °F 63.1 °F 29.87 in Calm   2.0 mph 99 % 0.00 in
08:02 63.9 °F 63.3 °F 29.87 in ESE 1.0 mph 3.0 mph 98 % 0.00 in
08:07 64.0 °F 63.5 °F 29.87 in Calm   3.0 mph 98 % 0.00 in
08:12 64.2 °F 63.7 °F 29.88 in Calm   3.0 mph 98 % 0.00 in
08:17 64.6 °F 64.0 °F 29.88 in SE 1.0 mph 3.0 mph 98 % 0.00 in
08:22 64.8 °F 64.2 °F 29.88 in Calm   3.0 mph 98 % 0.00 in
08:27 64.9 °F 64.4 °F 29.89 in Calm   2.0 mph 98 % 0.00 in
08:32 65.1 °F 64.6 °F 29.89 in Calm   2.0 mph 98 % 0.00 in
08:37 65.5 °F 64.9 °F 29.89 in Calm   2.0 mph 98 % 0.00 in
08:42 65.8 °F 65.3 °F 29.90 in Calm   2.0 mph 98 % 0.00 in
08:47 66.2 °F 65.7 °F 29.90 in Calm   2.0 mph 98 % 0.00 in
08:52 66.6 °F 65.7 °F 29.90 in ESE 2.0 mph 2.0 mph 97 % 0.00 in
08:57 67.5 °F 66.9 °F 29.90 in Calm   2.0 mph 98 % 0.00 in
09:03 68.4 °F 67.5 °F 29.90 in Calm   2.0 mph 97 % 0.00 in
09:08 69.1 °F 67.8 °F 29.90 in SSE 1.0 mph 4.0 mph 96 % 0.00 in
09:13 69.6 °F 68.2 °F 29.90 in ESE 1.0 mph 4.0 mph 95 % 0.00 in
09:18 70.3 °F 67.8 °F 29.90 in SSE 8.0 mph 9.0 mph 92 % 0.00 in
09:23 71.1 °F 68.4 °F 29.90 in East 2.0 mph 9.0 mph 91 % 0.00 in
09:28 72.0 °F 67.8 °F 29.90 in SE 5.0 mph 9.0 mph 87 % 0.00 in
09:33 72.3 °F 67.6 °F 29.90 in South 8.0 mph 12.0 mph 85 % 0.00 in
09:43 72.9 °F 66.4 °F 29.90 in South 7.0 mph 14.0 mph 80 % 0.00 in
09:48 73.0 °F 66.6 °F 29.90 in SSE 9.0 mph 16.0 mph 80 % 0.00 in
09:53 73.0 °F 65.5 °F 29.90 in SE 12.0 mph 16.0 mph 77 % 0.00 in
09:58 73.2 °F 65.7 °F 29.90 in SSE 10.0 mph 21.0 mph 77 % 0.00 in
10:03 73.8 °F 65.7 °F 29.89 in East 9.0 mph 21.0 mph 76 % 0.00 in
10:08 73.8 °F 65.7 °F 29.90 in SSE 6.0 mph 21.0 mph 76 % 0.00 in
10:13 74.1 °F 66.4 °F 29.90 in East 5.0 mph 18.0 mph 77 % 0.00 in
10:18 74.5 °F 66.0 °F 29.90 in ESE 7.0 mph 18.0 mph 75 % 0.00 in
10:23 74.8 °F 66.0 °F 29.90 in SSE 12.0 mph 16.0 mph 74 % 0.00 in
10:28 74.8 °F 65.7 °F 29.90 in ESE 13.0 mph 16.0 mph 73 % 0.00 in
10:33 75.0 °F 65.8 °F 29.90 in WNW 7.0 mph 16.0 mph 73 % 0.00 in
10:38 75.7 °F 66.0 °F 29.90 in ENE 6.0 mph 16.0 mph 72 % 0.00 in
10:43 76.3 °F 66.2 °F 29.90 in SSE 8.0 mph 16.0 mph 71 % 0.00 in
10:48 76.5 °F 66.4 °F 29.90 in ESE 5.0 mph 15.0 mph 71 % 0.00 in
10:53 76.5 °F 66.0 °F 29.91 in North 4.0 mph 16.0 mph 70 % 0.00 in
10:58 76.5 °F 66.4 °F 29.91 in SE 5.0 mph 16.0 mph 71 % 0.00 in
11:03 76.3 °F 66.2 °F 29.91 in SE 6.0 mph 16.0 mph 71 % 0.00 in
11:08 75.9 °F 65.8 °F 29.91 in East 7.0 mph 15.0 mph 71 % 0.00 in
11:13 75.9 °F 64.9 °F 29.91 in East 10.0 mph 13.0 mph 69 % 0.00 in
11:18 75.7 °F 65.3 °F 29.90 in ESE 8.0 mph 14.0 mph 70 % 0.00 in
11:23 75.6 °F 65.1 °F 29.91 in SE 11.0 mph 14.0 mph 70 % 0.00 in
11:28 75.7 °F 65.7 °F 29.90 in SSE 8.0 mph 17.0 mph 71 % 0.00 in
11:33 75.9 °F 65.8 °F 29.90 in SE 4.0 mph 17.0 mph 71 % 0.00 in
11:39 75.9 °F 65.5 °F 29.89 in ENE 6.0 mph 17.0 mph 70 % 0.00 in
11:41 78.1 °F 65.8 °F 29.88 in SE 9.0 mph 18.0 mph 66 % 0.00 in
11:42 78.1 °F 66.2 °F 29.88 in ESE 12.0 mph 18.0 mph 67 % 0.00 in
11:44 75.9 °F 65.8 °F 29.89 in ESE 8.0 mph 14.0 mph 71 % 0.00 in
11:45 78.3 °F 66.7 °F 29.88 in SE 7.0 mph 18.0 mph 68 % 0.00 in
11:46 78.3 °F 66.4 °F 29.88 in SE 7.0 mph 18.0 mph 67 % 0.00 in
11:47 78.4 °F 66.6 °F 29.88 in ESE 5.0 mph 18.0 mph 67 % 0.00 in
11:48 78.6 °F 67.1 °F 29.88 in East 10.0 mph 18.0 mph 68 % 0.00 in
11:49 75.7 °F 65.7 °F 29.89 in ESE 8.0 mph 12.0 mph 71 % 0.00 in
11:52 78.6 °F 66.7 °F 29.88 in SE 11.0 mph 17.0 mph 67 % 0.00 in
11:53 78.6 °F 66.7 °F 29.88 in ESE 7.0 mph 17.0 mph 67 % 0.00 in
11:54 75.7 °F 66.0 °F 29.89 in ENE 5.0 mph 13.0 mph 72 % 0.00 in
11:56 78.6 °F 66.7 °F 29.88 in ESE 7.0 mph 17.0 mph 67 % 0.00 in
11:57 78.6 °F 66.7 °F 29.88 in SE 8.0 mph 17.0 mph 67 % 0.00 in
11:59 75.7 °F 65.3 °F 29.90 in SSE 4.0 mph 14.0 mph 70 % 0.00 in
12:00 78.4 °F 66.6 °F 29.88 in ESE 12.0 mph 16.0 mph 67 % 0.00 in
12:03 78.3 °F 66.4 °F 29.88 in East 5.0 mph 16.0 mph 67 % 0.00 in
12:04 75.7 °F 65.3 °F 29.90 in ESE 5.0 mph 14.0 mph 70 % 0.00 in
12:06 78.4 °F 66.9 °F 29.88 in ESE 11.0 mph 16.0 mph 68 % 0.00 in
12:09 75.6 °F 64.8 °F 29.90 in East 10.0 mph 15.0 mph 69 % 0.00 in
12:11 78.3 °F 66.4 °F 29.87 in NNE 3.0 mph 16.0 mph 67 % 0.00 in
12:14 75.6 °F 65.1 °F 29.90 in SSW 8.0 mph 15.0 mph 70 % 0.00 in
12:19 75.4 °F 65.3 °F 29.90 in ESE 4.0 mph 15.0 mph 71 % 0.00 in
12:24 75.4 °F 65.3 °F 29.91 in ESE 8.0 mph 13.0 mph 71 % 0.00 in
12:29 75.4 °F 64.9 °F 29.90 in SE 9.0 mph 14.0 mph 70 % 0.00 in
12:34 75.4 °F 65.3 °F 29.90 in SE 11.0 mph 16.0 mph 71 % 0.00 in
12:39 75.4 °F 65.3 °F 29.90 in East 8.0 mph 16.0 mph 71 % 0.00 in
12:44 75.7 °F 66.0 °F 29.90 in South 3.0 mph 16.0 mph 72 % 0.00 in
12:49 76.5 °F 67.1 °F 29.89 in South 6.0 mph 15.0 mph 73 % 0.00 in
12:54 76.6 °F 66.9 °F 29.89 in SE 10.0 mph 15.0 mph 72 % 0.00 in
12:59 76.5 °F 66.7 °F 29.89 in SE 5.0 mph 15.0 mph 72 % 0.00 in
13:04 76.5 °F 66.7 °F 29.89 in SE 5.0 mph 15.0 mph 72 % 0.00 in
13:09 76.6 °F 66.9 °F 29.89 in SE 6.0 mph 15.0 mph 72 % 0.00 in
13:14 76.6 °F 66.6 °F 29.89 in SE 2.0 mph 14.0 mph 71 % 0.00 in
13:19 76.3 °F 66.2 °F 29.89 in SE 3.0 mph 14.0 mph 71 % 0.00 in
13:24 76.6 °F 67.3 °F 29.89 in SE 5.0 mph 15.0 mph 73 % 0.00 in
13:29 77.7 °F 66.7 °F 29.89 in ESE 3.0 mph 15.0 mph 69 % 0.00 in
13:34 78.3 °F 66.4 °F 29.89 in SSE 5.0 mph 15.0 mph 67 % 0.00 in
13:39 78.1 °F 66.2 °F 29.89 in East 10.0 mph 16.0 mph 67 % 0.00 in
13:44 78.1 °F 66.2 °F 29.89 in SE 13.0 mph 16.0 mph 67 % 0.00 in
13:49 77.5 °F 65.7 °F 29.89 in SE 6.0 mph 16.0 mph 67 % 0.00 in
13:54 77.4 °F 65.5 °F 29.89 in SE 5.0 mph 14.0 mph 67 % 0.00 in
13:59 77.4 °F 65.1 °F 29.89 in ESE 10.0 mph 15.0 mph 66 % 0.00 in
14:04 77.5 °F 66.2 °F 29.89 in SE 2.0 mph 17.0 mph 68 % 0.00 in
14:05 77.5 °F 65.7 °F 29.89 in SSE 7.0 mph 17.0 mph 67 % 0.00 in
14:10 77.9 °F 66.0 °F 29.89 in South 5.0 mph 17.0 mph 67 % 0.00 in
14:15 77.7 °F 65.8 °F 29.89 in SSE 13.0 mph 17.0 mph 67 % 0.00 in
14:20 78.1 °F 65.8 °F 29.89 in SE 10.0 mph 17.0 mph 66 % 0.00 in
14:25 77.9 °F 65.7 °F 29.89 in SSE 6.0 mph 18.0 mph 66 % 0.00 in
14:30 78.3 °F 66.4 °F 29.88 in East 8.0 mph 18.0 mph 67 % 0.00 in
14:35 78.1 °F 66.2 °F 29.88 in East 3.0 mph 18.0 mph 67 % 0.00 in
14:40 78.4 °F 66.9 °F 29.88 in SW 3.0 mph 18.0 mph 68 % 0.00 in
14:45 78.6 °F 66.7 °F 29.88 in ESE 5.0 mph 17.0 mph 67 % 0.00 in
14:50 78.6 °F 66.7 °F 29.88 in SE 7.0 mph 17.0 mph 67 % 0.00 in
14:55 78.3 °F 66.7 °F 29.88 in ESE 4.0 mph 16.0 mph 68 % 0.00 in
15:00 78.4 °F 66.9 °F 29.87 in ENE 6.0 mph 16.0 mph 68 % 0.00 in
15:05 78.4 °F 66.9 °F 29.87 in ESE 5.0 mph 16.0 mph 68 % 0.00 in
15:10 78.8 °F 67.3 °F 29.87 in SSE 5.0 mph 17.0 mph 68 % 0.00 in
15:15 79.0 °F 67.1 °F 29.87 in SE 8.0 mph 17.0 mph 67 % 0.00 in
15:20 78.4 °F 66.9 °F 29.87 in SE 5.0 mph 17.0 mph 68 % 0.00 in
15:25 79.0 °F 67.5 °F 29.86 in SE 12.0 mph 16.0 mph 68 % 0.00 in
15:30 79.3 °F 66.9 °F 29.86 in SE 4.0 mph 16.0 mph 66 % 0.00 in
15:31 79.3 °F 66.9 °F 29.86 in SE 5.0 mph 16.0 mph 66 % 0.00 in
15:36 79.0 °F 66.6 °F 29.86 in ENE 3.0 mph 15.0 mph 66 % 0.00 in
15:41 78.6 °F 67.1 °F 29.86 in ESE 5.0 mph 13.0 mph 68 % 0.00 in
15:46 78.6 °F 67.1 °F 29.86 in East 11.0 mph 13.0 mph 68 % 0.00 in
15:51 78.4 °F 66.6 °F 29.86 in ESE 3.0 mph 16.0 mph 67 % 0.00 in
15:56 78.4 °F 67.5 °F 29.86 in ENE 4.0 mph 16.0 mph 69 % 0.00 in
16:01 78.6 °F 67.1 °F 29.86 in ESE 7.0 mph 16.0 mph 68 % 0.00 in
16:06 78.3 °F 66.7 °F 29.86 in SE 4.0 mph 14.0 mph 68 % 0.00 in
16:11 78.1 °F 67.1 °F 29.86 in SE 7.0 mph 16.0 mph 69 % 0.00 in
16:16 77.9 °F 67.3 °F 29.86 in ESE 9.0 mph 16.0 mph 70 % 0.00 in
16:21 78.1 °F 67.1 °F 29.86 in SE 9.0 mph 16.0 mph 69 % 0.00 in
16:26 78.4 °F 66.9 °F 29.86 in ESE 11.0 mph 15.0 mph 68 % 0.00 in
16:31 78.4 °F 67.5 °F 29.86 in East 8.0 mph 15.0 mph 69 % 0.00 in
16:36 78.3 °F 67.6 °F 29.86 in ESE 4.0 mph 13.0 mph 70 % 0.00 in
16:41 78.1 °F 68.4 °F 29.86 in ENE 6.0 mph 15.0 mph 72 % 0.00 in
16:46 77.7 °F 67.6 °F 29.85 in SSE 5.0 mph 15.0 mph 71 % 0.00 in
16:51 77.5 °F 66.9 °F 29.86 in SE 5.0 mph 15.0 mph 70 % 0.00 in
16:56 77.2 °F 67.1 °F 29.86 in ESE 8.0 mph 14.0 mph 71 % 0.00 in
17:01 76.8 °F 66.7 °F 29.86 in East 3.0 mph 14.0 mph 71 % 0.00 in
17:06 76.6 °F 66.6 °F 29.86 in SE 4.0 mph 14.0 mph 71 % 0.00 in
17:11 76.5 °F 66.7 °F 29.86 in ESE 5.0 mph 13.0 mph 72 % 0.00 in
17:16 76.3 °F 66.6 °F 29.86 in East 4.0 mph 13.0 mph 72 % 0.00 in
17:21 76.3 °F 66.6 °F 29.86 in SSE 3.0 mph 13.0 mph 72 % 0.00 in
17:26 75.9 °F 66.6 °F 29.86 in East 8.0 mph 11.0 mph 73 % 0.00 in
17:31 76.1 °F 66.4 °F 29.86 in ESE 5.0 mph 15.0 mph 72 % 0.00 in
17:36 76.1 °F 66.4 °F 29.86 in SSE 6.0 mph 15.0 mph 72 % 0.00 in
17:41 75.9 °F 66.2 °F 29.86 in SSE 3.0 mph 15.0 mph 72 % 0.00 in
17:46 75.9 °F 66.6 °F 29.86 in SE 9.0 mph 14.0 mph 73 % 0.00 in
17:51 75.7 °F 66.9 °F 29.86 in SSE 7.0 mph 14.0 mph 74 % 0.00 in
17:56 75.9 °F 66.6 °F 29.86 in SE 5.0 mph 13.0 mph 73 % 0.00 in
18:01 76.1 °F 66.4 °F 29.86 in SE 5.0 mph 13.0 mph 72 % 0.00 in
18:06 76.1 °F 66.4 °F 29.86 in SSE 1.0 mph 12.0 mph 72 % 0.00 in
18:11 75.7 °F 66.0 °F 29.87 in East 9.0 mph 12.0 mph 72 % 0.00 in
18:16 75.7 °F 66.4 °F 29.86 in SE 8.0 mph 14.0 mph 73 % 0.00 in
18:21 75.6 °F 66.4 °F 29.87 in ESE 6.0 mph 14.0 mph 73 % 0.00 in
18:26 75.6 °F 66.4 °F 29.86 in ESE 6.0 mph 14.0 mph 73 % 0.00 in
18:27 75.4 °F 66.2 °F 29.86 in ESE 6.0 mph 14.0 mph 73 % 0.00 in
18:32 75.4 °F 66.2 °F 29.86 in ESE 6.0 mph 14.0 mph 73 % 0.00 in
18:37 75.0 °F 66.2 °F 29.87 in SE 10.0 mph 14.0 mph 74 % 0.00 in
18:42 74.8 °F 66.0 °F 29.87 in SSE 4.0 mph 16.0 mph 74 % 0.00 in
18:47 74.8 °F 66.0 °F 29.87 in South 4.0 mph 16.0 mph 74 % 0.00 in
18:52 74.8 °F 66.4 °F 29.87 in ENE 3.0 mph 16.0 mph 75 % 0.00 in
18:57 74.8 °F 66.4 °F 29.87 in ESE 5.0 mph 13.0 mph 75 % 0.00 in
19:02 74.8 °F 66.4 °F 29.87 in SE 6.0 mph 12.0 mph 75 % 0.00 in
19:07 74.8 °F 66.7 °F 29.87 in East 8.0 mph 12.0 mph 76 % 0.00 in
19:12 74.7 °F 66.6 °F 29.87 in SE 1.0 mph 12.0 mph 76 % 0.00 in
19:17 74.5 °F 66.7 °F 29.87 in SE 6.0 mph 12.0 mph 77 % 0.00 in
19:22 74.3 °F 66.6 °F 29.87 in East 3.0 mph 12.0 mph 77 % 0.00 in
19:27 74.1 °F 66.7 °F 29.88 in ESE 12.0 mph 15.0 mph 78 % 0.00 in
19:32 73.9 °F 66.6 °F 29.87 in ESE 7.0 mph 15.0 mph 78 % 0.00 in
19:33 73.9 °F 66.6 °F 29.87 in East 5.0 mph 15.0 mph 78 % 0.00 in
19:39 73.9 °F 66.6 °F 29.86 in ESE 6.0 mph 15.0 mph 78 % 0.00 in
19:43 73.8 °F 66.4 °F 29.86 in ESE 5.0 mph 14.0 mph 78 % 0.00 in
19:49 73.8 °F 66.9 °F 29.88 in SE 3.0 mph 11.0 mph 79 % 0.00 in
19:54 73.6 °F 66.7 °F 29.88 in ESE 5.0 mph 11.0 mph 79 % 0.00 in
19:59 73.6 °F 67.1 °F 29.87 in South 1.0 mph 10.0 mph 80 % 0.00 in
20:04 73.2 °F 66.7 °F 29.87 in ESE 1.0 mph 10.0 mph 80 % 0.00 in
20:09 73.2 °F 67.1 °F 29.87 in East 1.0 mph 10.0 mph 81 % 0.00 in
20:14 73.0 °F 66.9 °F 29.87 in East 3.0 mph 7.0 mph 81 % 0.00 in
20:19 73.0 °F 66.9 °F 29.88 in SE 2.0 mph 8.0 mph 81 % 0.00 in
20:24 72.9 °F 67.1 °F 29.88 in SE 4.0 mph 9.0 mph 82 % 0.00 in
20:29 72.9 °F 67.1 °F 29.88 in East 1.0 mph 9.0 mph 82 % 0.00 in
20:34 72.7 °F 66.9 °F 29.89 in SE 2.0 mph 9.0 mph 82 % 0.00 in
20:39 72.7 °F 67.3 °F 29.89 in ESE 3.0 mph 9.0 mph 83 % 0.00 in
20:44 72.7 °F 67.3 °F 29.89 in SE 1.0 mph 9.0 mph 83 % 0.00 in
20:49 72.7 °F 67.3 °F 29.88 in ESE 1.0 mph 8.0 mph 83 % 0.00 in
20:54 72.5 °F 67.5 °F 29.85 in East 5.0 mph 8.0 mph 84 % 0.00 in
20:59 72.3 °F 67.3 °F 29.86 in South 2.0 mph 10.0 mph 84 % 0.00 in
21:04 72.1 °F 67.5 °F 29.85 in ESE 1.0 mph 10.0 mph 85 % 0.00 in
21:09 72.1 °F 67.5 °F 29.86 in NW 1.0 mph 10.0 mph 85 % 0.00 in
21:14 72.0 °F 67.3 °F 29.87 in SSE 1.0 mph 10.0 mph 85 % 0.00 in
21:19 72.0 °F 67.3 °F 29.88 in ESE 3.0 mph 10.0 mph 85 % 0.00 in
21:24 72.0 °F 67.3 °F 29.88 in SE 3.0 mph 9.0 mph 85 % 0.00 in
21:29 72.0 °F 67.3 °F 29.88 in ESE 2.0 mph 9.0 mph 85 % 0.00 in
21:34 72.0 °F 67.3 °F 29.89 in SE 3.0 mph 9.0 mph 85 % 0.00 in
21:39 72.0 °F 67.3 °F 29.88 in SSE 3.0 mph 11.0 mph 85 % 0.00 in
21:44 72.0 °F 67.3 °F 29.88 in SE 7.0 mph 11.0 mph 85 % 0.00 in
21:49 72.0 °F 67.3 °F 29.88 in ESE 1.0 mph 15.0 mph 85 % 0.00 in
21:54 72.0 °F 67.3 °F 29.88 in ESE 4.0 mph 15.0 mph 85 % 0.00 in
21:59 72.0 °F 67.3 °F 29.88 in SE 5.0 mph 15.0 mph 85 % 0.00 in
22:04 71.8 °F 67.1 °F 29.88 in East 3.0 mph 11.0 mph 85 % 0.00 in
22:09 71.8 °F 67.1 °F 29.88 in SSE 3.0 mph 10.0 mph 85 % 0.00 in
22:14 72.0 °F 67.3 °F 29.88 in East 3.0 mph 10.0 mph 85 % 0.00 in
22:19 72.0 °F 67.3 °F 29.88 in North 2.0 mph 10.0 mph 85 % 0.00 in
22:24 72.0 °F 67.3 °F 29.88 in SSE 7.0 mph 10.0 mph 85 % 0.00 in
22:29 72.1 °F 67.5 °F 29.88 in East 7.0 mph 16.0 mph 85 % 0.00 in
22:34 72.1 °F 67.5 °F 29.88 in SE 3.0 mph 16.0 mph 85 % 0.00 in
22:39 72.0 °F 67.5 °F 29.88 in ESE 3.0 mph 16.0 mph 86 % 0.00 in
22:44 72.0 °F 67.5 °F 29.88 in SE 3.0 mph 11.0 mph 86 % 0.00 in
22:49 72.0 °F 67.5 °F 29.88 in ESE 3.0 mph 11.0 mph 86 % 0.00 in
22:54 72.0 °F 67.5 °F 29.88 in SSE 2.0 mph 10.0 mph 86 % 0.00 in
22:59 71.8 °F 67.3 °F 29.88 in SE 2.0 mph 10.0 mph 86 % 0.00 in
23:09 71.8 °F 67.3 °F 29.88 in East 5.0 mph 11.0 mph 86 % 0.00 in
23:14 71.6 °F 67.1 °F 29.88 in SSE 3.0 mph 11.0 mph 86 % 0.00 in
23:19 71.4 °F 67.3 °F 29.88 in ESE 3.0 mph 10.0 mph 87 % 0.00 in
23:24 71.4 °F 67.3 °F 29.88 in SE 1.0 mph 8.0 mph 87 % 0.00 in
23:29 71.4 °F 67.3 °F 29.88 in East 4.0 mph 8.0 mph 87 % 0.00 in
23:34 71.4 °F 67.3 °F 29.88 in ESE 1.0 mph 9.0 mph 87 % 0.00 in
23:39 71.4 °F 67.3 °F 29.88 in East 1.0 mph 9.0 mph 87 % 0.00 in
23:45 71.2 °F 67.5 °F 29.87 in ESE 4.0 mph 9.0 mph 88 % 0.00 in
23:49 71.2 °F 67.5 °F 29.86 in ESE 2.0 mph 8.0 mph 88 % 0.00 in
23:55 71.2 °F 67.5 °F 29.86 in ENE 3.0 mph 6.0 mph 88 % 0.00 in
Spring, Texas: Villages of Bridgestone
Compliments of Weather Underground - 3 mb

Script developed by  Jim McMurry - jmcmurry@mwt.net Adapted for the template by  Wim van der Kuil - Leuven-Template.eu

You find our weather info also at:

UK Metoffice

WeatherCloud

Weather Underground

Mid-South Weather Network

AWEKAS

Citizen Weather Observer Program (CWOP)

HAMweather, WeatherForYou, PWS Weather

Equipment we use:

Weather-station
Davis Vantage Vue

Weather-program
Meteohub

Weather-server
Debian 7.9 x86 (Guest)

Provider
DreamHost

Davis Vantage Vue

Meteohub

Debian 7.9 x86 (Guest)

DreamHost